createdAt,value
2023-02-02T00:01:39.710Z,12.05
2023-02-02T00:04:07.723Z,12.38
2023-02-02T00:06:36.142Z,10.02
2023-02-02T00:09:05.140Z,9.05
2023-02-02T00:11:33.058Z,12.83
2023-02-02T00:14:01.955Z,16.65
2023-02-02T00:16:43.503Z,12.20
2023-02-02T00:19:14.310Z,10.82
2023-02-02T00:21:43.961Z,12.60
2023-02-02T00:24:13.343Z,11.27
2023-02-02T00:26:43.596Z,15.85
2023-02-02T00:29:16.758Z,16.80
2023-02-02T00:31:46.195Z,13.13
2023-02-02T00:34:15.192Z,12.98
2023-02-02T00:36:44.593Z,12.88
2023-02-02T00:39:15.451Z,13.98
2023-02-02T00:41:43.438Z,15.82
2023-02-02T00:44:29.341Z,18.67
2023-02-02T00:46:58.763Z,6.97
2023-02-02T00:51:55.428Z,10.45
2023-02-02T00:54:23.856Z,7.70
2023-02-02T00:56:52.227Z,21.23
2023-02-02T00:59:20.238Z,10.57
2023-02-02T01:01:48.466Z,10.02
2023-02-02T01:04:18.833Z,9.43
2023-02-02T01:06:47.846Z,9.35
2023-02-02T01:09:15.814Z,13.98
2023-02-02T01:11:44.365Z,7.15
2023-02-02T01:14:12.261Z,14.23
2023-02-02T01:16:41.402Z,9.50
2023-02-02T01:19:09.664Z,9.48
2023-02-02T01:21:39.415Z,8.13
2023-02-02T01:24:08.863Z,9.65
2023-02-02T01:26:37.776Z,10.90
2023-02-02T01:29:05.736Z,14.40
2023-02-02T01:31:34.557Z,11.52
2023-02-02T01:34:02.738Z,9.43
2023-02-02T01:36:31.969Z,13.15
2023-02-02T01:39:01.383Z,8.57
2023-02-02T01:41:30.032Z,4.55
2023-02-02T01:44:00.364Z,5.65
2023-02-02T01:46:30.101Z,10.50
2023-02-02T01:49:08.907Z,6.38
2023-02-02T01:51:43.851Z,11.05
2023-02-02T01:54:33.158Z,9.05
2023-02-02T01:57:04.904Z,9.07
2023-02-02T01:59:35.152Z,15.52
2023-02-02T02:02:04.161Z,11.20
2023-02-02T02:04:33.471Z,8.02
2023-02-02T02:07:04.353Z,18.60
2023-02-02T02:09:35.819Z,13.75
2023-02-02T02:12:03.865Z,7.70
2023-02-02T02:14:49.697Z,21.48
2023-02-02T02:17:34.962Z,10.32
2023-02-02T02:21:00.506Z,9.57
2023-02-02T02:24:16.484Z,14.88
2023-02-02T02:27:14.620Z,8.73
2023-02-02T02:30:16.748Z,6.07
2023-02-02T02:32:51.303Z,6.53
2023-02-02T02:35:30.143Z,8.52
2023-02-02T02:38:03.127Z,9.00
2023-02-02T02:40:37.527Z,10.88
2023-02-02T02:43:10.298Z,9.75
2023-02-02T02:45:40.782Z,10.35
2023-02-02T02:48:11.449Z,8.68
2023-02-02T02:50:40.800Z,10.68
2023-02-02T02:53:13.862Z,9.38
2023-02-02T02:55:50.916Z,12.07
2023-02-02T02:58:26.877Z,8.13
2023-02-02T03:01:04.129Z,5.72
2023-02-02T03:03:52.758Z,6.53
2023-02-02T03:06:24.858Z,7.05
2023-02-02T03:08:59.603Z,8.10
2023-02-02T03:11:28.837Z,10.95
2023-02-02T03:13:57.324Z,8.30
2023-02-02T03:16:26.184Z,8.23
2023-02-02T03:18:56.560Z,8.05
2023-02-02T03:21:24.952Z,8.43
2023-02-02T03:23:53.317Z,7.13
2023-02-02T03:26:21.761Z,6.22
2023-02-02T03:28:50.175Z,11.40
2023-02-02T03:31:19.988Z,6.38
2023-02-02T03:33:48.189Z,6.72
2023-02-02T03:36:19.624Z,7.22
2023-02-02T03:38:48.059Z,10.85
2023-02-02T03:41:16.240Z,10.88
2023-02-02T03:43:45.088Z,6.18
2023-02-02T03:46:13.038Z,9.35
2023-02-02T03:48:41.476Z,9.05
2023-02-02T03:51:12.029Z,9.60
2023-02-02T03:53:44.314Z,10.05
2023-02-02T03:56:13.159Z,9.80
2023-02-02T03:58:41.104Z,7.10
2023-02-02T04:01:13.030Z,7.40
2023-02-02T04:03:41.678Z,9.13
2023-02-02T04:06:09.910Z,12.50
2023-02-02T04:08:39.452Z,6.13
2023-02-02T04:11:12.056Z,9.57
2023-02-02T04:13:40.831Z,7.40
2023-02-02T04:16:09.268Z,19.58
2023-02-02T04:18:38.935Z,11.40
2023-02-02T04:21:09.062Z,11.60
2023-02-02T04:23:37.252Z,13.05
2023-02-02T04:26:05.817Z,12.48
2023-02-02T04:28:36.067Z,9.30
2023-02-02T04:31:04.058Z,15.43
2023-02-02T04:33:36.599Z,7.80
2023-02-02T04:36:05.694Z,9.25
2023-02-02T04:38:33.608Z,10.47
2023-02-02T04:41:08.277Z,12.10
2023-02-02T04:43:38.871Z,10.50
2023-02-02T04:46:07.905Z,6.50
2023-02-02T04:48:36.310Z,6.70
2023-02-02T04:51:06.350Z,10.68
2023-02-02T04:53:34.848Z,7.97
2023-02-02T04:56:10.127Z,10.35
2023-02-02T04:58:39.554Z,9.32
2023-02-02T05:01:12.892Z,11.45
2023-02-02T05:03:40.978Z,5.95
2023-02-02T05:06:09.145Z,10.63
2023-02-02T05:08:38.611Z,7.32
2023-02-02T05:11:10.158Z,9.77
2023-02-02T05:13:40.419Z,9.27
2023-02-02T05:16:08.643Z,9.60
2023-02-02T05:18:37.115Z,7.53
2023-02-02T05:21:05.816Z,7.60
2023-02-02T05:23:34.486Z,12.52
2023-02-02T05:26:02.994Z,8.98
2023-02-02T05:28:30.964Z,6.53
2023-02-02T05:31:00.873Z,7.25
2023-02-02T05:35:56.980Z,3.88
2023-02-02T05:38:26.006Z,4.88
2023-02-02T05:40:53.876Z,11.63
2023-02-02T05:43:25.543Z,6.07
2023-02-02T05:45:53.639Z,7.88
2023-02-02T05:48:23.192Z,3.00
2023-02-02T05:53:25.901Z,3.22
2023-02-02T05:55:54.244Z,3.28
2023-02-02T05:58:22.194Z,3.22
2023-02-02T06:00:50.132Z,3.83
2023-02-02T06:03:19.311Z,8.13
2023-02-02T06:05:49.075Z,7.45
2023-02-02T06:08:17.448Z,6.68
2023-02-02T06:10:45.861Z,3.65
2023-02-02T06:13:14.639Z,3.05
2023-02-02T06:15:43.287Z,5.53
2023-02-02T06:18:36.595Z,4.93
2023-02-02T06:21:07.402Z,4.05
2023-02-02T06:23:36.357Z,6.07
2023-02-02T06:26:04.646Z,4.53
2023-02-02T06:28:33.313Z,4.30
2023-02-02T06:31:06.339Z,2.90
2023-02-02T06:33:34.502Z,4.13
2023-02-02T06:36:03.247Z,2.40
2023-02-02T06:38:33.837Z,4.90
2023-02-02T06:41:02.411Z,3.95
2023-02-02T06:43:32.562Z,6.70
2023-02-02T06:46:01.344Z,7.40
2023-02-02T06:48:29.378Z,4.38
2023-02-02T06:50:59.314Z,7.88
2023-02-02T06:53:28.221Z,7.30
2023-02-02T06:55:58.893Z,8.03
2023-02-02T06:58:27.923Z,8.02
2023-02-02T07:00:55.976Z,5.57
2023-02-02T07:03:24.598Z,4.20
2023-02-02T07:05:52.497Z,5.80
2023-02-02T07:08:20.455Z,7.47
2023-02-02T07:11:14.738Z,4.15
2023-02-02T07:13:38.892Z,2.35
2023-02-02T07:18:37.361Z,2.77
2023-02-02T07:21:05.789Z,4.30
2023-02-02T07:23:34.690Z,4.05
2023-02-02T07:26:05.332Z,7.80
2023-02-02T07:28:34.030Z,4.15
2023-02-02T07:31:14.055Z,5.78
2023-02-02T07:33:43.061Z,6.95
2023-02-02T07:36:11.441Z,6.45
2023-02-02T07:38:39.755Z,3.13
2023-02-02T07:41:07.755Z,2.95
2023-02-02T07:43:35.789Z,6.30
2023-02-02T07:46:08.737Z,5.63
2023-02-02T07:48:37.628Z,3.38
2023-02-02T07:51:10.251Z,6.07
2023-02-02T07:53:38.224Z,6.35
2023-02-02T07:56:11.743Z,7.32
2023-02-02T07:58:40.115Z,3.75
2023-02-02T08:01:11.647Z,2.90
2023-02-02T08:03:43.379Z,5.78
2023-02-02T08:06:13.648Z,1.60
2023-02-02T08:08:42.689Z,9.63
2023-02-02T08:11:12.571Z,3.10
2023-02-02T08:13:41.978Z,2.78
2023-02-02T08:16:12.746Z,6.35
2023-02-02T08:18:41.224Z,4.03
2023-02-02T08:21:11.176Z,3.75
2023-02-02T08:23:41.380Z,4.13
2023-02-02T08:26:12.534Z,1.35
2023-02-02T08:28:41.604Z,10.95
2023-02-02T08:31:13.383Z,4.67
2023-02-02T08:33:41.602Z,4.90
2023-02-02T08:36:14.095Z,3.80
2023-02-02T08:38:42.681Z,5.20
2023-02-02T08:41:12.668Z,5.85
2023-02-02T08:43:42.114Z,3.30
2023-02-02T08:46:14.165Z,5.73
2023-02-02T08:48:43.458Z,2.55
2023-02-02T08:51:14.423Z,3.78
2023-02-02T08:53:43.800Z,8.32
2023-02-02T08:56:14.270Z,5.03
2023-02-02T08:58:46.172Z,2.33
2023-02-02T09:01:18.029Z,3.60
2023-02-02T09:03:46.928Z,5.25
2023-02-02T09:06:16.533Z,4.32
2023-02-02T09:08:44.980Z,5.85
2023-02-02T09:11:15.865Z,2.50
2023-02-02T09:13:45.858Z,8.05
2023-02-02T09:16:18.596Z,3.25
2023-02-02T09:18:47.276Z,1.88
2023-02-02T09:21:17.291Z,3.45
2023-02-02T09:23:46.582Z,3.17
2023-02-02T09:26:16.674Z,8.05
2023-02-02T09:28:46.640Z,6.20
2023-02-02T09:33:45.636Z,5.25
2023-02-02T09:36:15.686Z,8.23
2023-02-02T09:38:44.844Z,4.10
2023-02-02T09:41:56.688Z,13.20
2023-02-02T09:44:40.758Z,6.38
2023-02-02T09:47:18.772Z,2.65
2023-02-02T09:49:58.348Z,5.13
2023-02-02T09:52:29.677Z,4.32
2023-02-02T09:55:01.894Z,4.82
2023-02-02T09:57:34.949Z,11.38
2023-02-02T10:00:06.234Z,5.70
2023-02-02T10:02:46.301Z,5.35
2023-02-02T10:05:20.871Z,7.35
2023-02-02T10:07:53.216Z,4.43
2023-02-02T10:10:27.207Z,8.73
2023-02-02T10:12:59.751Z,8.50
2023-02-02T10:15:37.402Z,6.25
2023-02-02T10:18:15.777Z,6.10
2023-02-02T10:20:49.237Z,3.30
2023-02-02T10:23:26.424Z,5.70
2023-02-02T10:25:59.536Z,7.00
2023-02-02T10:28:42.527Z,3.92
2023-02-02T10:31:20.576Z,1.98
2023-02-02T10:34:03.407Z,3.35
2023-02-02T10:36:45.605Z,5.53
2023-02-02T10:39:25.133Z,5.00
2023-02-02T10:42:03.337Z,3.67
2023-02-02T10:44:38.571Z,3.42
2023-02-02T10:47:10.543Z,8.13
2023-02-02T10:49:42.739Z,6.80
2023-02-02T10:52:17.487Z,5.10
2023-02-02T10:55:00.026Z,11.85
2023-02-02T10:57:44.406Z,4.30
2023-02-02T11:00:22.946Z,7.32
2023-02-02T11:02:53.492Z,5.75
2023-02-02T11:05:43.298Z,7.95
2023-02-02T11:08:20.738Z,8.75
2023-02-02T11:10:53.455Z,6.25
2023-02-02T11:13:48.712Z,7.45
2023-02-02T11:16:32.646Z,6.20
2023-02-02T11:19:24.218Z,8.25
2023-02-02T11:21:56.385Z,6.85
2023-02-02T11:24:28.685Z,4.47
2023-02-02T11:26:59.232Z,8.75
2023-02-02T11:29:31.034Z,2.55
2023-02-02T11:31:59.762Z,2.72
2023-02-02T11:34:29.519Z,5.15
2023-02-02T11:37:11.647Z,5.53
2023-02-02T11:39:40.079Z,2.72
2023-02-02T11:42:15.360Z,4.13
2023-02-02T11:44:47.760Z,3.42
2023-02-02T11:47:26.866Z,2.78
2023-02-02T11:49:57.673Z,3.45
2023-02-02T11:52:33.077Z,3.75
2023-02-02T11:55:03.640Z,4.82
2023-02-02T11:57:32.028Z,6.82
2023-02-02T12:00:27.700Z,8.35
2023-02-02T12:02:55.822Z,5.90
2023-02-02T12:05:38.495Z,9.23
2023-02-02T12:08:12.669Z,11.07
2023-02-02T12:10:45.583Z,10.77
2023-02-02T12:13:21.168Z,11.30
2023-02-02T12:15:54.784Z,8.85
2023-02-02T12:18:38.908Z,12.90
2023-02-02T12:21:11.024Z,8.48
2023-02-02T12:23:55.449Z,7.72
2023-02-02T12:26:28.583Z,15.32
2023-02-02T12:29:23.509Z,11.13
2023-02-02T12:32:05.377Z,6.28
2023-02-02T12:34:43.537Z,4.40
2023-02-02T12:37:22.261Z,6.88
2023-02-02T12:40:04.490Z,7.83
2023-02-02T12:42:54.668Z,9.27
2023-02-02T12:45:41.286Z,9.13
2023-02-02T12:48:19.613Z,4.63
2023-02-02T12:51:01.150Z,4.28
2023-02-02T12:53:42.819Z,5.93
2023-02-02T12:56:24.462Z,4.65
2023-02-02T12:59:03.264Z,9.57
2023-02-02T13:01:56.554Z,6.28
2023-02-02T13:04:43.846Z,8.90
2023-02-02T13:07:40.236Z,5.78
2023-02-02T13:10:17.224Z,7.53
2023-02-02T13:12:51.926Z,6.68
2023-02-02T13:15:23.951Z,8.00
2023-02-02T13:17:55.689Z,9.90
2023-02-02T13:20:37.082Z,9.05
2023-02-02T13:23:11.750Z,6.75
2023-02-02T13:25:47.913Z,11.65
2023-02-02T13:28:27.618Z,5.75
2023-02-02T13:31:01.185Z,9.35
2023-02-02T13:33:34.301Z,6.68
2023-02-02T13:36:07.143Z,7.50
2023-02-02T13:38:39.265Z,6.18
2023-02-02T13:41:12.608Z,8.93
2023-02-02T13:43:48.486Z,8.27
2023-02-02T13:46:26.947Z,8.57
2023-02-02T13:49:03.055Z,8.85
2023-02-02T13:51:49.772Z,9.15
2023-02-02T13:54:52.759Z,6.93
2023-02-02T13:57:39.325Z,8.68
2023-02-02T14:00:18.915Z,8.27
2023-02-02T14:02:49.790Z,6.20
2023-02-02T14:05:27.409Z,6.85
2023-02-02T14:08:03.305Z,6.90
2023-02-02T14:10:35.287Z,6.13
2023-02-02T14:13:32.713Z,3.85
2023-02-02T14:16:06.174Z,5.55
2023-02-02T14:18:57.519Z,6.22
2023-02-02T14:21:59.447Z,5.97
2023-02-02T14:24:45.199Z,5.60
2023-02-02T14:27:56.383Z,4.75
2023-02-02T14:30:33.754Z,6.70
2023-02-02T14:33:48.000Z,7.53
2023-02-02T14:36:18.056Z,6.85
2023-02-02T14:39:07.020Z,9.57
2023-02-02T14:42:19.477Z,5.15
2023-02-02T14:45:17.785Z,5.32
2023-02-02T14:47:51.639Z,9.15
2023-02-02T14:50:26.881Z,6.80
2023-02-02T14:53:02.420Z,7.90
2023-02-02T14:55:31.877Z,11.75
2023-02-02T14:58:03.432Z,7.65
2023-02-02T15:00:34.442Z,8.57
2023-02-02T15:03:37.964Z,10.13
2023-02-02T15:06:26.166Z,13.02
2023-02-02T15:09:28.454Z,10.20
2023-02-02T15:12:17.714Z,8.40
2023-02-02T15:14:50.243Z,8.65
2023-02-02T15:17:28.106Z,11.52
2023-02-02T15:20:06.169Z,10.10
2023-02-02T15:22:38.974Z,9.93
2023-02-02T15:25:18.426Z,10.70
2023-02-02T15:27:56.766Z,10.50
2023-02-02T15:30:27.537Z,9.02
2023-02-02T15:32:57.109Z,9.10
2023-02-02T15:35:31.196Z,7.90
2023-02-02T15:38:02.917Z,8.98
2023-02-02T15:40:32.358Z,8.05
2023-02-02T15:43:06.744Z,7.97
2023-02-02T15:45:41.505Z,9.82
2023-02-02T15:48:21.538Z,7.53
2023-02-02T15:50:54.681Z,9.20
2023-02-02T15:53:27.990Z,11.25
2023-02-02T15:55:57.687Z,8.40
2023-02-02T15:58:29.352Z,8.75
2023-02-02T16:01:15.299Z,8.07
2023-02-02T16:03:52.255Z,8.52
2023-02-02T16:06:20.818Z,7.20
2023-02-02T16:08:50.710Z,7.82
2023-02-02T16:11:23.358Z,8.60
2023-02-02T16:14:01.293Z,7.72
2023-02-02T16:16:31.729Z,8.73
2023-02-02T16:19:14.335Z,11.80
2023-02-02T16:21:47.924Z,13.65
2023-02-02T16:24:21.977Z,16.80
2023-02-02T16:26:53.681Z,15.57
2023-02-02T16:29:22.108Z,16.15
2023-02-02T16:31:51.545Z,18.30
2023-02-02T16:37:07.084Z,18.00
2023-02-02T16:39:36.437Z,16.05
2023-02-02T16:42:11.917Z,12.70
2023-02-02T16:44:42.936Z,13.63
2023-02-02T16:47:34.341Z,14.05
2023-02-02T16:50:26.221Z,14.68
2023-02-02T16:52:58.516Z,11.20
2023-02-02T16:55:43.458Z,10.73
2023-02-02T16:58:21.440Z,10.13
2023-02-02T17:01:08.766Z,11.02
2023-02-02T17:03:50.882Z,11.93
2023-02-02T17:06:26.244Z,10.05
2023-02-02T17:08:55.082Z,9.05
2023-02-02T17:11:26.517Z,10.90
2023-02-02T17:13:56.221Z,10.85
2023-02-02T17:16:25.776Z,9.60
2023-02-02T17:18:54.863Z,11.43
2023-02-02T17:21:25.225Z,9.98
2023-02-02T17:23:55.165Z,11.77
2023-02-02T17:26:24.651Z,10.57
2023-02-02T17:31:25.796Z,6.10
2023-02-02T17:33:53.707Z,8.63
2023-02-02T17:36:22.552Z,11.50
2023-02-02T17:38:50.458Z,10.38
2023-02-02T17:41:18.827Z,11.05
2023-02-02T17:43:48.683Z,13.55
2023-02-02T17:48:44.381Z,11.07
2023-02-02T17:51:17.149Z,12.18
2023-02-02T17:53:46.102Z,12.73
2023-02-02T17:56:14.024Z,17.27
2023-02-02T17:58:42.991Z,16.40
2023-02-02T18:01:13.270Z,15.30
2023-02-02T18:03:48.167Z,16.48
2023-02-02T18:06:16.139Z,19.02
2023-02-02T18:08:45.602Z,17.42
2023-02-02T18:11:16.485Z,18.27
2023-02-02T18:13:44.551Z,19.98
2023-02-02T18:16:14.402Z,19.33
2023-02-02T18:18:43.262Z,16.90
2023-02-02T18:21:12.041Z,15.60
2023-02-02T18:23:40.002Z,18.08
2023-02-02T18:26:13.488Z,17.33
2023-02-02T18:28:41.570Z,14.82
2023-02-02T18:31:10.703Z,16.10
2023-02-02T18:36:12.438Z,11.70
2023-02-02T18:38:44.253Z,14.48
2023-02-02T18:41:12.609Z,13.70
2023-02-02T18:43:40.448Z,13.85
2023-02-02T18:46:11.431Z,14.07
2023-02-02T18:48:42.013Z,12.18
2023-02-02T18:51:16.071Z,13.30
2023-02-02T18:53:44.867Z,10.95
2023-02-02T18:56:14.734Z,13.93
2023-02-02T18:58:43.571Z,14.23
2023-02-02T19:01:13.397Z,13.52
2023-02-02T19:03:43.655Z,14.52
2023-02-02T19:06:28.845Z,17.80
2023-02-02T19:08:57.410Z,16.42
2023-02-02T19:11:27.992Z,14.82
2023-02-02T19:13:57.082Z,18.80
2023-02-02T19:16:28.026Z,15.67
2023-02-02T19:19:01.547Z,14.88
2023-02-02T19:21:31.830Z,17.05
2023-02-02T19:24:00.872Z,16.00
2023-02-02T19:26:30.442Z,16.27
2023-02-02T19:29:04.061Z,18.67
2023-02-02T19:31:32.359Z,18.60
2023-02-02T19:34:03.644Z,17.20
2023-02-02T19:36:31.889Z,16.92
2023-02-02T19:39:03.452Z,19.42
2023-02-02T19:41:33.056Z,20.88
2023-02-02T19:44:07.366Z,21.88
2023-02-02T19:46:43.191Z,21.67
2023-02-02T19:49:17.398Z,22.38
2023-02-02T19:51:48.087Z,24.83
2023-02-02T19:54:28.313Z,21.00
2023-02-02T19:56:59.185Z,19.58
2023-02-02T19:59:33.238Z,21.25
2023-02-02T20:02:28.845Z,16.35
2023-02-02T20:05:07.346Z,18.35
2023-02-02T20:07:36.056Z,13.75
2023-02-02T20:10:16.126Z,15.15
2023-02-02T20:12:45.058Z,15.20
2023-02-02T20:15:26.966Z,13.23
2023-02-02T20:17:58.294Z,11.70
2023-02-02T20:20:30.079Z,11.93
2023-02-02T20:22:58.732Z,16.05
2023-02-02T20:25:26.843Z,12.45
2023-02-02T20:27:55.446Z,12.73
2023-02-02T20:30:26.731Z,16.55
2023-02-02T20:32:58.595Z,18.92
2023-02-02T20:35:37.207Z,17.85
2023-02-02T20:38:19.612Z,20.38
2023-02-02T20:40:48.162Z,21.35
2023-02-02T20:43:16.102Z,20.23
2023-02-02T20:45:44.753Z,22.45
2023-02-02T20:48:14.198Z,21.90
2023-02-02T20:50:43.755Z,22.95
2023-02-02T20:53:15.223Z,13.63
2023-02-02T20:55:44.356Z,27.13
2023-02-02T20:58:12.593Z,26.15
2023-02-02T21:00:41.207Z,26.67
2023-02-02T21:03:09.144Z,28.48
2023-02-02T21:05:38.325Z,27.23
2023-02-02T21:08:08.129Z,29.52
2023-02-02T21:13:04.188Z,18.42
2023-02-02T21:15:32.657Z,29.15
2023-02-02T21:18:00.555Z,28.35
2023-02-02T21:20:29.330Z,26.52
2023-02-02T21:22:58.190Z,32.38
2023-02-02T21:25:27.735Z,37.97
2023-02-02T21:28:00.710Z,26.42
2023-02-02T21:32:57.186Z,31.20
2023-02-02T21:35:28.293Z,35.97
2023-02-02T21:37:58.806Z,35.15
2023-02-02T21:40:30.609Z,35.63
2023-02-02T21:43:00.523Z,41.22
2023-02-02T21:45:35.921Z,32.72
2023-02-02T21:48:07.191Z,36.08
2023-02-02T21:50:38.185Z,34.83
2023-02-02T21:53:20.470Z,32.05
2023-02-02T21:55:53.861Z,37.25
2023-02-02T21:58:27.589Z,34.75
2023-02-02T22:01:01.097Z,41.28
2023-02-02T22:03:39.401Z,34.03
2023-02-02T22:06:24.392Z,35.85
2023-02-02T22:08:54.511Z,34.55
2023-02-02T22:11:31.772Z,35.15
2023-02-02T22:14:08.976Z,30.73
2023-02-02T22:16:44.747Z,42.72
2023-02-02T22:19:30.518Z,39.22
2023-02-02T22:22:22.240Z,31.52
2023-02-02T22:24:57.836Z,36.95
2023-02-02T22:27:36.855Z,38.70
2023-02-02T22:30:26.567Z,36.67
2023-02-02T22:32:55.866Z,39.45
2023-02-02T22:35:23.867Z,28.47
2023-02-02T22:37:52.471Z,29.88
2023-02-02T22:40:23.103Z,38.72
2023-02-02T22:42:53.418Z,33.67
2023-02-02T22:45:22.706Z,33.10
2023-02-02T22:47:51.199Z,35.85
2023-02-02T22:50:22.290Z,34.10
2023-02-02T22:52:50.577Z,34.25
2023-02-02T22:55:19.199Z,40.00
2023-02-02T22:57:48.394Z,33.42
2023-02-02T23:00:20.269Z,33.90
2023-02-02T23:02:49.692Z,33.55
2023-02-02T23:05:20.189Z,38.88
2023-02-02T23:07:49.133Z,31.67
2023-02-02T23:10:21.193Z,41.78
2023-02-02T23:12:50.203Z,33.90
2023-02-02T23:15:19.747Z,36.35
2023-02-02T23:17:48.908Z,33.78
2023-02-02T23:20:17.083Z,35.53
2023-02-02T23:22:45.589Z,33.08
2023-02-02T23:25:15.059Z,35.15
2023-02-02T23:27:43.660Z,34.33
2023-02-02T23:30:13.877Z,36.45
2023-02-02T23:32:44.143Z,32.10
2023-02-02T23:35:12.204Z,29.33
2023-02-02T23:37:40.261Z,28.70
2023-02-02T23:40:10.302Z,29.85
2023-02-02T23:42:38.783Z,26.70
2023-02-02T23:45:07.206Z,26.98
2023-02-02T23:47:36.690Z,31.20
2023-02-02T23:50:09.361Z,26.27
2023-02-02T23:52:38.925Z,29.98
2023-02-02T23:55:08.337Z,24.75
